createdAt,value
2022-09-21T00:00:56.554Z,3.40
2022-09-21T00:03:52.202Z,3.50
2022-09-21T00:06:00.440Z,3.30
2022-09-21T00:07:52.404Z,3.60
2022-09-21T00:10:25.861Z,4.00
2022-09-21T00:13:30.938Z,4.10
2022-09-21T00:16:46.496Z,3.40
2022-09-21T00:18:12.595Z,3.90
2022-09-21T00:20:27.699Z,3.50
2022-09-21T00:27:39.503Z,3.70
2022-09-21T00:30:36.469Z,4.10
2022-09-21T00:33:54.447Z,4.20
2022-09-21T00:36:17.004Z,4.20
2022-09-21T00:39:40.809Z,4.60
2022-09-21T00:44:06.041Z,4.20
2022-09-21T00:46:27.531Z,4.20
2022-09-21T00:49:50.604Z,4.60
2022-09-21T00:51:44.581Z,4.60
2022-09-21T00:53:13.991Z,4.30
2022-09-21T00:55:08.766Z,5.50
2022-09-21T00:58:48.607Z,5.30
2022-09-21T01:00:20.810Z,4.90
2022-09-21T01:03:02.334Z,5.10
2022-09-21T01:09:32.938Z,5.10
2022-09-21T01:12:37.978Z,4.60
2022-09-21T01:14:27.732Z,4.80
2022-09-21T01:22:01.531Z,4.70
2022-09-21T01:26:35.543Z,4.60
2022-09-21T01:35:54.447Z,5.30
2022-09-21T01:38:51.706Z,5.10
2022-09-21T01:41:33.383Z,4.70
2022-09-21T01:43:52.586Z,4.50
2022-09-21T01:47:19.450Z,4.80
2022-09-21T01:50:12.835Z,5.00
2022-09-21T01:53:09.519Z,4.80
2022-09-21T01:54:44.663Z,4.50
2022-09-21T02:00:32.501Z,4.90
2022-09-21T02:02:04.397Z,5.40
2022-09-21T02:05:40.220Z,4.70
2022-09-21T02:08:12.961Z,5.30
2022-09-21T02:11:21.914Z,4.90
2022-09-21T02:13:42.151Z,5.10
2022-09-21T02:17:14.012Z,4.60
2022-09-21T02:18:24.355Z,5.40
2022-09-21T02:22:16.075Z,4.90
2022-09-21T02:26:40.031Z,4.50
2022-09-21T02:29:39.536Z,4.80
2022-09-21T02:36:05.066Z,5.30
2022-09-21T02:37:51.918Z,5.40
2022-09-21T02:41:05.443Z,5.10
2022-09-21T02:42:59.862Z,5.30
2022-09-21T02:47:33.054Z,5.10
2022-09-21T02:50:24.281Z,5.30
2022-09-21T02:51:52.452Z,5.40
2022-09-21T02:55:07.642Z,5.50
2022-09-21T02:56:37.752Z,5.80
2022-09-21T02:58:13.292Z,5.70
2022-09-21T02:59:42.029Z,5.40
2022-09-21T03:01:33.504Z,5.80
2022-09-21T03:06:43.777Z,5.70
2022-09-21T03:08:46.698Z,5.20
2022-09-21T03:10:21.015Z,5.80
2022-09-21T03:12:58.860Z,5.30
2022-09-21T03:16:16.050Z,5.70
2022-09-21T03:21:32.629Z,5.90
2022-09-21T03:23:20.345Z,5.60
2022-09-21T03:28:12.357Z,5.50
2022-09-21T03:29:41.457Z,5.60
2022-09-21T03:33:46.444Z,5.40
2022-09-21T03:36:23.007Z,5.40
2022-09-21T03:38:12.813Z,5.50
2022-09-21T03:43:29.655Z,5.50
2022-09-21T03:44:57.109Z,5.00
2022-09-21T03:47:44.010Z,6.20
2022-09-21T03:50:13.302Z,5.10
2022-09-21T03:52:10.922Z,5.20
2022-09-21T03:56:49.446Z,5.50
2022-09-21T03:59:14.165Z,5.00
2022-09-21T04:00:40.356Z,4.80
2022-09-21T04:02:28.570Z,4.90
2022-09-21T04:03:38.943Z,4.90
2022-09-21T04:07:33.398Z,5.90
2022-09-21T04:09:49.590Z,4.90
2022-09-21T04:12:27.132Z,5.40
2022-09-21T04:14:03.320Z,4.80
2022-09-21T04:16:29.681Z,5.50
2022-09-21T04:18:00.920Z,5.40
2022-09-21T04:22:06.785Z,5.50
2022-09-21T04:25:29.911Z,5.10
2022-09-21T04:29:34.808Z,5.30
2022-09-21T04:31:03.067Z,4.80
2022-09-21T04:34:59.704Z,5.00
2022-09-21T04:38:13.440Z,6.70
2022-09-21T04:44:55.226Z,8.00
2022-09-21T04:48:11.022Z,5.90
2022-09-21T04:52:15.848Z,5.60
2022-09-21T04:56:05.788Z,5.60
2022-09-21T05:00:09.028Z,5.50
2022-09-21T05:02:14.859Z,5.80
2022-09-21T05:09:15.106Z,5.30
2022-09-21T05:17:41.986Z,6.60
2022-09-21T05:23:38.013Z,5.90
2022-09-21T05:25:47.363Z,5.70
2022-09-21T05:33:23.373Z,5.80
2022-09-21T05:41:32.900Z,5.60
2022-09-21T05:44:07.770Z,5.90
2022-09-21T05:47:44.854Z,5.80
2022-09-21T05:50:17.684Z,5.90
2022-09-21T05:51:50.649Z,6.30
2022-09-21T05:56:42.300Z,6.00
2022-09-21T05:58:32.100Z,5.50
2022-09-21T06:00:02.304Z,5.50
2022-09-21T06:03:20.034Z,5.80
2022-09-21T06:04:51.541Z,5.80
2022-09-21T06:07:00.092Z,6.10
2022-09-21T06:08:58.157Z,6.00
2022-09-21T06:10:28.379Z,5.90
2022-09-21T06:12:55.837Z,5.80
2022-09-21T06:14:47.110Z,5.90
2022-09-21T06:17:55.502Z,6.00
2022-09-21T06:20:17.347Z,5.90
2022-09-21T06:24:25.252Z,6.30
2022-09-21T06:25:58.207Z,6.50
2022-09-21T06:28:14.137Z,6.60
2022-09-21T06:30:17.735Z,6.30
2022-09-21T06:33:46.188Z,6.50
2022-09-21T06:35:13.186Z,6.60
2022-09-21T06:37:01.970Z,6.80
2022-09-21T06:43:19.868Z,7.80
2022-09-21T06:45:25.419Z,7.70
2022-09-21T06:46:55.732Z,8.60
2022-09-21T06:48:27.663Z,9.50
2022-09-21T06:51:47.438Z,12.60
2022-09-21T06:54:52.789Z,13.30
2022-09-21T06:56:24.557Z,13.80
2022-09-21T06:59:33.903Z,11.60
2022-09-21T07:01:03.643Z,10.90
2022-09-21T07:02:35.731Z,10.10
2022-09-21T07:04:56.462Z,10.10
2022-09-21T07:06:58.932Z,10.70
2022-09-21T07:10:26.568Z,9.70
2022-09-21T07:12:48.208Z,10.50
2022-09-21T07:14:52.141Z,9.00
2022-09-21T07:16:19.577Z,9.80
2022-09-21T07:17:52.416Z,9.70
2022-09-21T07:23:02.738Z,10.50
2022-09-21T07:24:43.626Z,10.00
2022-09-21T07:26:42.219Z,10.90
2022-09-21T07:34:58.329Z,10.10
2022-09-21T07:40:28.434Z,8.60
2022-09-21T07:43:02.472Z,8.60
2022-09-21T07:47:01.520Z,9.50
2022-09-21T07:49:09.354Z,10.30
2022-09-21T07:53:32.126Z,10.00
2022-09-21T07:55:31.938Z,9.10
2022-09-21T08:00:19.602Z,7.70
2022-09-21T08:02:10.382Z,7.90
2022-09-21T08:07:27.650Z,7.10
2022-09-21T08:10:21.958Z,7.20
2022-09-21T08:13:52.138Z,6.80
2022-09-21T08:15:46.968Z,6.50
2022-09-21T08:16:57.237Z,6.30
2022-09-21T08:19:26.152Z,5.50
2022-09-21T08:22:48.081Z,5.20
2022-09-21T08:24:46.738Z,4.70
2022-09-21T08:27:05.683Z,3.80
2022-09-21T08:29:34.762Z,4.00
2022-09-21T08:33:46.355Z,5.30
2022-09-21T08:37:50.637Z,5.20
2022-09-21T08:42:13.773Z,4.80
2022-09-21T08:44:31.310Z,4.20
2022-09-21T08:50:09.863Z,4.40
2022-09-21T08:56:13.452Z,3.80
2022-09-21T08:59:53.428Z,3.50
2022-09-21T09:01:21.535Z,3.30
2022-09-21T09:02:51.605Z,3.00
2022-09-21T09:04:22.355Z,3.90
2022-09-21T09:05:52.282Z,3.00
2022-09-21T09:07:55.812Z,3.20
2022-09-21T09:09:22.986Z,2.80
2022-09-21T09:10:52.906Z,3.60
2022-09-21T09:12:42.569Z,3.70
2022-09-21T09:19:02.021Z,2.80
2022-09-21T09:22:52.483Z,2.90
2022-09-21T09:26:17.297Z,3.00
2022-09-21T09:30:18.929Z,2.80
2022-09-21T09:32:15.133Z,2.90
2022-09-21T09:33:44.009Z,2.90
2022-09-21T09:42:11.443Z,2.40
2022-09-21T09:45:00.739Z,2.20
2022-09-21T09:47:57.520Z,1.80
2022-09-21T09:52:40.115Z,1.80
2022-09-21T09:54:10.436Z,1.70
2022-09-21T09:57:08.445Z,2.40
2022-09-21T10:00:56.237Z,2.00
2022-09-21T10:05:03.549Z,2.40
2022-09-21T10:06:33.407Z,1.90
2022-09-21T10:08:04.303Z,2.00
2022-09-21T10:09:32.386Z,1.80
2022-09-21T10:15:45.955Z,1.80
2022-09-21T10:21:27.097Z,1.60
2022-09-21T10:24:36.453Z,1.50
2022-09-21T10:26:06.440Z,2.00
2022-09-21T10:31:30.429Z,1.70
2022-09-21T10:32:57.212Z,1.50
2022-09-21T10:36:06.210Z,1.70
2022-09-21T10:37:54.982Z,1.20
2022-09-21T10:42:52.027Z,1.50
2022-09-21T10:44:43.688Z,1.40
2022-09-21T10:46:12.630Z,1.40
2022-09-21T10:51:51.289Z,1.70
2022-09-21T10:53:50.951Z,1.30
2022-09-21T10:57:14.831Z,1.90
2022-09-21T10:59:32.444Z,17.20
2022-09-21T11:05:47.031Z,0.90
2022-09-21T11:07:39.263Z,1.30
2022-09-21T11:11:20.309Z,1.20
2022-09-21T11:12:53.159Z,1.10
2022-09-21T11:14:51.190Z,1.50
2022-09-21T11:16:22.894Z,1.10
2022-09-21T11:18:31.122Z,0.90
2022-09-21T11:20:49.556Z,1.10
2022-09-21T11:31:15.260Z,1.20
2022-09-21T11:32:44.847Z,0.90
2022-09-21T11:38:20.060Z,1.30
2022-09-21T11:40:51.127Z,0.70
2022-09-21T11:45:01.234Z,1.00
2022-09-21T11:46:54.129Z,1.40
2022-09-21T11:51:10.950Z,3.20
2022-09-21T11:52:40.034Z,1.70
2022-09-21T11:54:39.628Z,1.30
2022-09-21T11:58:13.863Z,0.70
2022-09-21T11:59:43.717Z,0.70
2022-09-21T12:01:30.590Z,0.60
2022-09-21T12:04:19.154Z,2.50
2022-09-21T12:07:22.776Z,1.00
2022-09-21T12:10:12.187Z,1.20
2022-09-21T12:12:41.284Z,1.50
2022-09-21T12:16:08.130Z,0.90
2022-09-21T12:19:05.254Z,0.90
2022-09-21T12:21:06.212Z,1.10
2022-09-21T12:22:55.574Z,1.30
2022-09-21T12:24:22.976Z,1.30
2022-09-21T12:26:12.723Z,1.10
2022-09-21T12:29:52.326Z,2.70
2022-09-21T12:31:21.785Z,1.60
2022-09-21T12:33:21.480Z,1.60
2022-09-21T12:35:10.180Z,2.30
2022-09-21T12:38:12.366Z,3.40
2022-09-21T12:41:59.034Z,1.50
2022-09-21T12:46:09.588Z,1.20
2022-09-21T12:48:05.833Z,1.40
2022-09-21T12:49:42.106Z,1.20
2022-09-21T12:51:11.068Z,1.20
2022-09-21T12:52:09.119Z,1.30
2022-09-21T12:53:30.159Z,1.10
2022-09-21T12:56:09.025Z,1.90
2022-09-21T12:58:10.924Z,1.40
2022-09-21T13:02:08.793Z,1.40
2022-09-21T13:03:40.467Z,1.50
2022-09-21T13:06:19.229Z,1.20
2022-09-21T13:07:47.215Z,1.10
2022-09-21T13:09:19.032Z,1.10
2022-09-21T13:11:19.146Z,1.40
2022-09-21T13:13:57.825Z,1.10
2022-09-21T13:16:18.808Z,1.20
2022-09-21T13:18:49.565Z,1.10
2022-09-21T13:20:38.041Z,1.20
2022-09-21T13:22:37.951Z,1.20
2022-09-21T13:25:16.582Z,1.20
2022-09-21T13:26:45.407Z,1.20
2022-09-21T13:28:15.399Z,1.10
2022-09-21T13:30:05.129Z,1.30
2022-09-21T13:31:40.777Z,1.20
2022-09-21T13:33:05.058Z,1.10
2022-09-21T13:34:34.431Z,1.10
2022-09-21T13:36:04.844Z,1.70
2022-09-21T13:38:00.799Z,1.00
2022-09-21T13:39:29.672Z,1.00
2022-09-21T13:41:58.801Z,0.80
2022-09-21T13:43:03.499Z,1.00
2022-09-21T13:45:25.672Z,0.80
2022-09-21T13:47:23.327Z,0.80
2022-09-21T13:49:23.300Z,1.30
2022-09-21T13:52:09.893Z,1.00
2022-09-21T13:53:40.785Z,1.90
2022-09-21T13:55:08.801Z,1.70
2022-09-21T13:56:58.520Z,1.40
2022-09-21T13:59:58.880Z,1.20
2022-09-21T14:01:59.110Z,0.90
2022-09-21T14:05:04.401Z,1.10
2022-09-21T14:07:04.486Z,1.00
2022-09-21T14:10:01.902Z,1.30
2022-09-21T14:11:36.903Z,1.30
2022-09-21T14:16:14.433Z,1.30
2022-09-21T14:18:34.889Z,1.10
2022-09-21T14:20:30.265Z,0.90
2022-09-21T14:22:00.166Z,1.00
2022-09-21T14:28:28.732Z,1.00
2022-09-21T14:31:04.206Z,1.10
2022-09-21T14:32:36.890Z,1.30
2022-09-21T14:37:07.690Z,1.20
2022-09-21T14:40:01.602Z,1.10
2022-09-21T14:42:13.186Z,0.90
2022-09-21T14:43:21.495Z,1.20
2022-09-21T14:45:06.525Z,0.80
2022-09-21T14:47:29.479Z,1.00
2022-09-21T14:54:37.170Z,1.00
2022-09-21T15:00:22.129Z,1.00
2022-09-21T15:02:21.189Z,0.90
2022-09-21T15:06:05.375Z,1.00
2022-09-21T15:10:31.507Z,1.50
2022-09-21T15:16:06.918Z,0.90
2022-09-21T15:17:34.228Z,1.00
2022-09-21T15:20:14.923Z,1.10
2022-09-21T15:22:01.955Z,1.10
2022-09-21T15:23:40.404Z,1.60
2022-09-21T15:29:10.508Z,1.00
2022-09-21T15:31:45.557Z,0.90
2022-09-21T15:36:36.312Z,1.40
2022-09-21T15:38:10.492Z,1.20
2022-09-21T15:40:16.729Z,1.10
2022-09-21T15:43:33.371Z,1.50
2022-09-21T15:45:52.169Z,1.10
2022-09-21T15:52:57.636Z,1.80
2022-09-21T15:55:54.551Z,1.00
2022-09-21T16:00:21.926Z,1.20
2022-09-21T16:01:52.386Z,0.90
2022-09-21T16:04:24.685Z,1.20
2022-09-21T16:05:54.945Z,1.20
2022-09-21T16:13:23.259Z,1.00
2022-09-21T16:16:52.169Z,1.00
2022-09-21T16:18:51.701Z,1.20
2022-09-21T16:24:09.506Z,0.90
2022-09-21T16:26:25.526Z,1.10
2022-09-21T16:30:06.961Z,1.50
2022-09-21T16:34:11.228Z,3.40
2022-09-21T16:37:49.727Z,2.20
2022-09-21T16:39:39.492Z,2.20
2022-09-21T16:43:56.388Z,1.40
2022-09-21T16:48:43.935Z,1.20
2022-09-21T16:54:28.234Z,1.50
2022-09-21T16:57:38.873Z,1.40
2022-09-21T16:59:14.015Z,1.30
2022-09-21T17:02:54.126Z,2.10
2022-09-21T17:08:35.297Z,2.30
2022-09-21T17:10:03.605Z,5.60
2022-09-21T17:13:15.480Z,7.50
2022-09-21T17:14:46.935Z,8.10
2022-09-21T17:17:23.743Z,6.90
2022-09-21T17:19:46.568Z,5.40
2022-09-21T17:21:13.189Z,5.10
2022-09-21T17:23:46.321Z,5.00
2022-09-21T17:25:42.856Z,5.30
2022-09-21T17:31:23.370Z,9.70
2022-09-21T17:32:54.006Z,8.60
2022-09-21T17:35:55.195Z,5.10
2022-09-21T17:37:24.750Z,3.70
2022-09-21T17:39:50.606Z,2.70
2022-09-21T17:44:04.748Z,20.20
2022-09-21T17:45:33.556Z,17.30
2022-09-21T17:47:34.228Z,10.20
2022-09-21T17:49:53.044Z,6.60
2022-09-21T17:59:17.596Z,31.30
2022-09-21T18:02:15.454Z,16.90
2022-09-21T18:03:43.040Z,12.90
2022-09-21T18:05:42.254Z,11.10
2022-09-21T18:07:31.955Z,8.90
2022-09-21T18:10:20.947Z,8.30
2022-09-21T18:12:19.805Z,7.10
2022-09-21T18:19:00.125Z,7.40
2022-09-21T18:24:11.670Z,5.40
2022-09-21T18:26:00.630Z,5.70
2022-09-21T18:29:38.901Z,5.70
2022-09-21T18:33:17.759Z,4.40
2022-09-21T18:35:20.293Z,3.60
2022-09-21T18:36:49.535Z,3.90
2022-09-21T18:44:35.789Z,9.70
2022-09-21T18:46:25.004Z,10.40
2022-09-21T18:47:55.455Z,9.70
2022-09-21T18:50:44.301Z,7.80
2022-09-21T18:54:07.410Z,8.90
2022-09-21T18:55:36.852Z,9.60
2022-09-21T18:57:08.724Z,31.70
2022-09-21T18:59:31.041Z,22.60
2022-09-21T19:01:46.348Z,22.40
2022-09-21T19:03:18.637Z,18.60
2022-09-21T19:06:22.674Z,15.90
2022-09-21T19:09:12.342Z,14.70
2022-09-21T19:11:42.528Z,13.50
2022-09-21T19:14:31.288Z,13.70
2022-09-21T19:17:48.651Z,16.80
2022-09-21T19:19:19.441Z,17.50
2022-09-21T19:25:10.915Z,22.60
2022-09-21T19:30:58.199Z,12.70
2022-09-21T19:33:51.044Z,11.80
2022-09-21T19:42:35.649Z,15.30
2022-09-21T19:45:39.628Z,16.00
2022-09-21T19:47:10.484Z,17.00
2022-09-21T19:51:01.321Z,17.10
2022-09-21T19:58:37.992Z,16.20
2022-09-21T20:04:59.605Z,14.10
2022-09-21T20:09:53.165Z,10.10
2022-09-21T20:12:22.583Z,9.80
2022-09-21T20:18:45.783Z,8.50
2022-09-21T20:21:01.959Z,9.00
2022-09-21T20:25:19.270Z,8.50
2022-09-21T20:26:50.386Z,9.70
2022-09-21T20:28:59.217Z,9.60
2022-09-21T20:31:21.473Z,9.10
2022-09-21T20:32:51.561Z,10.50
2022-09-21T20:34:22.419Z,10.20
2022-09-21T20:36:23.164Z,10.40
2022-09-21T20:42:14.265Z,9.90
2022-09-21T20:45:22.247Z,10.80
2022-09-21T20:47:26.013Z,10.10
2022-09-21T20:49:53.151Z,10.30
2022-09-21T20:51:20.428Z,10.70
2022-09-21T20:52:53.300Z,11.10
2022-09-21T20:56:14.549Z,10.90
2022-09-21T20:59:23.287Z,10.40
2022-09-21T21:00:58.514Z,9.50
2022-09-21T21:06:46.960Z,10.20
2022-09-21T21:08:43.462Z,10.60
2022-09-21T21:10:13.890Z,9.90
2022-09-21T21:17:04.146Z,9.40
2022-09-21T21:19:57.382Z,9.60
2022-09-21T21:22:52.273Z,9.60
2022-09-21T21:26:57.287Z,9.30
2022-09-21T21:28:38.768Z,10.00
2022-09-21T21:33:46.428Z,9.20
2022-09-21T21:35:16.821Z,9.20
2022-09-21T21:39:09.657Z,10.30
2022-09-21T21:40:39.383Z,10.60
2022-09-21T21:47:38.845Z,9.70
2022-09-21T21:49:15.350Z,10.10
2022-09-21T21:59:37.910Z,9.30
2022-09-21T22:01:57.427Z,9.10
2022-09-21T22:03:25.189Z,9.50
2022-09-21T22:06:42.128Z,10.10
2022-09-21T22:09:00.342Z,9.90
2022-09-21T22:13:38.085Z,8.90
2022-09-21T22:16:31.971Z,9.00
2022-09-21T22:18:32.268Z,9.20
2022-09-21T22:20:53.085Z,9.70
2022-09-21T22:22:21.562Z,9.30
2022-09-21T22:30:15.457Z,9.70
2022-09-21T22:32:46.903Z,10.30
2022-09-21T22:35:35.669Z,10.30
2022-09-21T22:37:03.758Z,10.30
2022-09-21T22:38:34.100Z,10.50
2022-09-21T22:40:04.812Z,9.60
2022-09-21T22:41:37.911Z,9.60
2022-09-21T22:43:41.773Z,9.80
2022-09-21T22:48:55.450Z,9.30
2022-09-21T22:51:00.581Z,9.60
2022-09-21T22:58:07.993Z,10.00
2022-09-21T22:59:35.885Z,10.10
2022-09-21T23:01:05.099Z,9.10
2022-09-21T23:07:29.909Z,9.50
2022-09-21T23:13:34.170Z,9.70
2022-09-21T23:19:04.231Z,10.30
2022-09-21T23:20:34.153Z,10.00
2022-09-21T23:22:52.340Z,10.40
2022-09-21T23:26:41.894Z,10.50
2022-09-21T23:29:15.025Z,9.90
2022-09-21T23:33:13.979Z,10.00
2022-09-21T23:36:54.296Z,10.70
2022-09-21T23:38:24.217Z,10.60
2022-09-21T23:41:50.299Z,10.00
2022-09-21T23:43:22.172Z,9.70
2022-09-21T23:45:50.211Z,10.10
2022-09-21T23:55:32.208Z,9.00
